< < Back
Terminal Aerodrome Forecast


Current Version              Previous Versions:   1  2  3  4  5  6  7  8  9  

Terminal Aerodrome Forecast

016
FTUS42 KFFC 171100
TAFMCN
TAF
KMCN 171127Z 1712/1812 28003KT P6SM FEW040
     FM171600 32008KT P6SM SCT045
     FM180100 33003KT P6SM SKC=

Latest METAR

471
SAUS80 KWBC 171100 RRA
MTRMCN
METAR KMCN 171053Z AUTO 27003KT 3SM BR CLR 19/19 A2994 RMK AO2 SLP132
T01940194 TSNO


USA.gov is the U.S. government's official web portal to all federal, state and local government web resources and services.